Time;durP1;ratioP1;P1;durP2;ratioP2;P2;SDS_P1;SDS_P2;PMS_P1;PMS_P2;Temp;Humidity;BMP_temperature;BMP_pressure;BME280_temperature;BME280_humidity;BME280_pressure;Samples;Min_cycle;Max_cycle;Signal;HPM_P1;HPM_P2
2023/06/19 00:01:15;;;;;;;9.38;4.18;;;;;;;21.42;84.26;100594.00;5074582;28;20056;-65
2023/06/19 00:03:43;;;;;;;8.13;3.70;;;;;;;21.34;84.06;100604.34;5074150;28;20855;-65
2023/06/19 00:06:12;;;;;;;8.45;3.60;;;;;;;21.28;84.14;100600.31;5074201;28;20045;-65
2023/06/19 00:08:43;;;;;;;7.20;4.00;;;;;;;21.31;84.30;100585.53;5073736;28;20057;-66
2023/06/19 00:11:10;;;;;;;7.95;4.43;;;;;;;21.30;84.44;100588.72;5074116;28;20067;-64
2023/06/19 00:13:37;;;;;;;14.48;4.88;;;;;;;21.29;84.48;100595.53;5058314;28;20049;-65
2023/06/19 00:16:05;;;;;;;12.15;4.97;;;;;;;21.19;84.77;100589.44;5059568;28;20067;-65
2023/06/19 00:18:39;;;;;;;8.32;4.40;;;;;;;21.33;83.76;100599.13;5081194;28;20052;-65
2023/06/19 00:21:07;;;;;;;8.48;4.70;;;;;;;21.24;84.00;100600.28;5064695;28;20041;-64
2023/06/19 00:23:35;;;;;;;9.23;4.40;;;;;;;21.35;83.62;100597.56;5052059;28;20041;-65
2023/06/19 00:26:03;;;;;;;8.98;5.15;;;;;;;21.40;83.32;100608.41;5063107;28;20056;-65
2023/06/19 00:28:30;;;;;;;8.45;4.68;;;;;;;21.21;83.99;100605.84;5071578;28;20047;-64
2023/06/19 00:31:00;;;;;;;9.50;4.80;;;;;;;21.32;83.92;100612.38;5056725;28;20045;-63
2023/06/19 00:33:29;;;;;;;8.82;5.10;;;;;;;21.27;83.76;100625.94;5053223;28;20052;-65
2023/06/19 00:35:56;;;;;;;9.55;4.45;;;;;;;21.16;84.40;100620.22;5053390;28;20563;-64
2023/06/19 00:38:23;;;;;;;13.85;5.25;;;;;;;21.10;84.51;100622.56;5053633;28;20063;-65
2023/06/19 00:40:51;;;;;;;9.38;5.10;;;;;;;21.11;84.65;100635.38;5051759;28;20044;-65
2023/06/19 00:43:18;;;;;;;9.35;5.03;;;;;;;21.07;84.52;100631.75;5052189;28;20053;-65
2023/06/19 00:45:46;;;;;;;11.73;5.75;;;;;;;21.16;85.28;100637.84;5035728;28;20041;-65
2023/06/19 00:48:13;;;;;;;10.13;4.85;;;;;;;21.02;84.86;100643.31;5053039;28;20063;-64
2023/06/19 00:50:41;;;;;;;13.30;5.00;;;;;;;21.19;84.98;100647.47;5051541;28;20045;-64
2023/06/19 00:53:08;;;;;;;9.93;5.40;;;;;;;21.10;84.80;100649.78;5052027;28;20060;-64
2023/06/19 00:55:36;;;;;;;11.75;5.45;;;;;;;21.13;85.46;100646.22;5052025;28;20049;-65
2023/06/19 00:58:03;;;;;;;10.05;5.68;;;;;;;21.00;85.20;100645.69;5072985;28;20052;-65
2023/06/19 01:00:31;;;;;;;11.70;5.72;;;;;;;21.00;85.02;100647.69;5070972;28;20055;-64
2023/06/19 01:02:58;;;;;;;12.95;6.20;;;;;;;20.89;85.70;100658.75;5071619;28;20048;-64
2023/06/19 01:05:28;;;;;;;14.15;6.07;;;;;;;20.89;86.27;100666.31;5053332;28;20056;-64
2023/06/19 01:08:41;;;;;;;12.50;5.90;;;;;;;20.79;86.21;100662.25;5059643;28;20055;-64
2023/06/19 01:11:11;;;;;;;11.40;5.88;;;;;;;20.99;85.67;100660.88;5071318;28;20059;-65
2023/06/19 01:13:59;;;;;;;12.90;6.55;;;;;;;20.87;85.77;100663.91;5052057;28;20053;-65
2023/06/19 01:16:30;;;;;;;13.55;6.10;;;;;;;20.86;85.99;100662.31;5051937;28;20049;-65
2023/06/19 01:18:57;;;;;;;;;;;;;;;20.74;86.74;100658.97;5057018;28;20048;-65
2023/06/19 01:21:25;;;;;;;8.65;5.97;;;;;;;20.64;87.90;100660.44;5072411;28;19927;-65
2023/06/19 01:23:55;;;;;;;12.30;6.43;;;;;;;20.71;87.55;100651.34;5072912;28;20036;-65
2023/06/19 01:26:27;;;;;;;17.65;6.30;;;;;;;20.84;87.45;100661.06;5072663;28;20056;-66
2023/06/19 01:28:55;;;;;;;13.23;6.45;;;;;;;20.70;87.21;100658.94;5054920;28;20063;-65
2023/06/19 01:31:29;;;;;;;9.77;5.95;;;;;;;20.63;87.84;100663.63;5060997;28;20812;-65
2023/06/19 01:33:57;;;;;;;11.52;6.43;;;;;;;20.63;87.90;100656.06;5052756;28;20045;-64
2023/06/19 01:36:24;;;;;;;11.80;6.05;;;;;;;20.52;88.75;100657.13;5051229;28;20056;-64
2023/06/19 01:38:54;;;;;;;10.85;6.03;;;;;;;20.56;88.56;100658.75;5067928;28;20060;-65
2023/06/19 01:41:24;;;;;;;12.50;6.90;;;;;;;20.44;89.13;100661.00;5051963;28;20064;-64
2023/06/19 01:43:52;;;;;;;15.73;6.68;;;;;;;20.37;89.41;100655.31;5072299;28;20511;-65
2023/06/19 01:46:19;;;;;;;9.93;6.07;;;;;;;20.53;89.38;100653.94;5057119;28;20052;-65
2023/06/19 01:48:47;;;;;;;12.38;6.70;;;;;;;20.53;88.32;100653.94;5056401;28;20056;-65
2023/06/19 01:51:14;;;;;;;10.43;6.63;;;;;;;20.37;89.91;100666.50;5056441;28;20053;-64
2023/06/19 01:53:42;;;;;;;11.90;7.10;;;;;;;20.27;90.25;100661.59;5071733;28;20420;-64
2023/06/19 01:56:09;;;;;;;16.73;6.72;;;;;;;20.46;90.00;100664.22;5069768;28;20047;-65
2023/06/19 01:58:37;;;;;;;11.13;6.20;;;;;;;20.53;88.94;100667.13;5073830;28;20056;-65
2023/06/19 02:01:04;;;;;;;12.68;7.05;;;;;;;20.37;88.50;100663.72;5073084;28;20074;-65
2023/06/19 02:03:31;;;;;;;19.10;7.15;;;;;;;20.40;89.49;100674.16;5061926;28;20045;-64
2023/06/19 02:05:59;;;;;;;10.75;6.80;;;;;;;20.33;89.53;100674.84;5075880;28;20047;-65
2023/06/19 02:08:26;;;;;;;11.90;7.20;;;;;;;20.28;90.17;100665.97;5057985;28;20067;-65
2023/06/19 02:10:54;;;;;;;15.00;7.32;;;;;;;20.27;89.89;100669.97;5074603;28;20048;-64
2023/06/19 02:13:21;;;;;;;17.33;7.55;;;;;;;20.13;90.48;100671.38;5063583;28;20579;-64
2023/06/19 02:15:48;;;;;;;15.40;8.52;;;;;;;19.81;91.61;100661.72;5045224;28;20060;-65
2023/06/19 02:18:16;;;;;;;10.45;7.53;;;;;;;19.70;93.41;100671.13;5082836;28;20658;-64
2023/06/19 02:20:43;;;;;;;13.98;7.70;;;;;;;19.85;92.75;100668.19;5075761;28;20044;-65
2023/06/19 02:23:10;;;;;;;13.60;8.60;;;;;;;19.95;92.10;100663.91;5074711;28;20543;-64
2023/06/19 02:25:38;;;;;;;17.48;8.20;;;;;;;20.02;91.14;100672.41;5054378;28;20449;-64
2023/06/19 02:28:05;;;;;;;20.98;8.70;;;;;;;19.89;91.63;100669.03;5053797;28;20052;-64
2023/06/19 02:30:32;;;;;;;19.60;8.13;;;;;;;19.79;92.65;100675.25;5064165;28;20036;-66
2023/06/19 02:33:00;;;;;;;14.40;8.75;;;;;;;20.04;91.47;100675.63;5057815;28;20060;-66
2023/06/19 02:35:28;;;;;;;14.70;8.43;;;;;;;20.25;90.47;100678.75;5074400;28;20049;-64
2023/06/19 02:37:55;;;;;;;16.98;7.78;;;;;;;20.37;89.54;100674.91;5058169;28;20048;-64
2023/06/19 02:40:23;;;;;;;13.40;8.20;;;;;;;20.33;89.75;100676.88;5066257;28;20487;-65
2023/06/19 02:42:51;;;;;;;17.00;8.10;;;;;;;20.40;89.19;100676.97;5055516;28;20044;-65
2023/06/19 02:45:18;;;;;;;15.13;8.40;;;;;;;20.32;88.90;100675.25;5061604;28;20048;-64
2023/06/19 02:47:47;;;;;;;16.70;8.07;;;;;;;20.40;88.69;100683.34;5057856;28;20059;-65
2023/06/19 02:50:15;;;;;;;15.63;8.45;;;;;;;20.39;88.53;100692.94;5073401;28;20052;-65
2023/06/19 02:52:42;;;;;;;17.48;8.27;;;;;;;20.35;88.22;100699.66;5059584;28;20524;-65
2023/06/19 02:55:10;;;;;;;14.40;8.02;;;;;;;20.51;87.97;100694.69;5037780;28;20053;-64
2023/06/19 02:57:37;;;;;;;20.73;7.70;;;;;;;20.37;87.55;100688.91;5057648;28;20059;-65
2023/06/19 03:00:09;;;;;;;21.08;7.97;;;;;;;20.38;87.40;100691.31;5071560;28;20060;-65
2023/06/19 03:02:36;;;;;;;14.40;7.70;;;;;;;20.19;88.65;100687.88;5075255;28;20052;-65
2023/06/19 03:05:04;;;;;;;16.27;8.48;;;;;;;20.20;88.87;100686.66;5058572;28;20030;-64
2023/06/19 03:07:32;;;;;;;17.05;8.25;;;;;;;20.28;89.09;100672.41;5058876;28;20052;-65
2023/06/19 03:10:01;;;;;;;17.80;8.27;;;;;;;20.50;87.38;100670.69;5070921;28;20515;-65
2023/06/19 03:12:29;;;;;;;14.00;7.35;;;;;;;20.42;87.30;100675.38;5066064;28;20056;-65
2023/06/19 03:14:56;;;;;;;11.95;7.50;;;;;;;20.37;87.38;100684.13;5057176;28;20496;-64
2023/06/19 03:17:25;;;;;;;16.75;8.23;;;;;;;20.23;88.72;100683.09;5084303;28;20062;-65
2023/06/19 03:19:53;;;;;;;13.63;7.78;;;;;;;20.20;88.61;100683.88;5090373;28;20047;-65
2023/06/19 03:22:21;;;;;;;12.63;8.60;;;;;;;20.14;88.68;100674.97;5069171;28;20049;-65
2023/06/19 03:24:49;;;;;;;16.75;7.68;;;;;;;19.96;90.00;100685.91;5073815;28;20048;-65
2023/06/19 03:27:20;;;;;;;16.30;8.18;;;;;;;20.20;88.87;100681.88;5074221;28;20052;-64
2023/06/19 03:29:48;;;;;;;19.05;8.82;;;;;;;20.15;89.44;100680.19;5066618;28;20207;-64
2023/06/19 03:32:21;;;;;;;16.80;8.13;;;;;;;20.13;89.15;100685.38;5062569;28;20053;-65
2023/06/19 03:34:49;;;;;;;13.88;8.43;;;;;;;19.78;90.59;100684.84;5073339;28;20059;-66
2023/06/19 03:37:17;;;;;;;17.42;8.88;;;;;;;19.85;91.60;100684.94;5041438;28;20053;-66
2023/06/19 03:39:44;;;;;;;20.85;8.95;;;;;;;19.56;92.75;100694.06;5069368;28;20052;-66
2023/06/19 03:42:12;;;;;;;14.55;8.90;;;;;;;19.53;94.23;100694.81;5053407;28;20408;-67
2023/06/19 03:44:40;;;;;;;19.85;9.85;;;;;;;19.45;94.57;100698.69;5053142;28;20527;-69
2023/06/19 03:47:08;;;;;;;18.10;8.55;;;;;;;19.25;95.75;100699.88;5066239;28;20044;-66
2023/06/19 03:49:35;;;;;;;21.08;9.20;;;;;;;19.16;96.79;100706.91;5072639;28;20070;-67
2023/06/19 03:52:03;;;;;;;15.75;9.40;;;;;;;19.50;96.19;100700.34;5061406;28;20044;-67
2023/06/19 03:54:30;;;;;;;16.02;9.23;;;;;;;19.38;95.73;100698.56;5060425;28;20036;-70
2023/06/19 03:56:59;;;;;;;20.75;8.98;;;;;;;19.67;94.21;100695.03;5062983;28;20049;-67
2023/06/19 03:59:27;;;;;;;17.90;9.05;;;;;;;19.83;92.45;100698.50;5064413;28;20045;-65
2023/06/19 04:01:54;;;;;;;18.33;9.45;;;;;;;19.54;92.46;100693.66;5051383;28;20679;-64
2023/06/19 04:04:22;;;;;;;21.23;10.07;;;;;;;19.44;93.63;100697.03;5057795;28;20037;-66
2023/06/19 04:06:49;;;;;;;21.90;9.38;;;;;;;19.31;94.97;100692.84;5064775;28;20064;-64
2023/06/19 04:09:16;;;;;;;18.90;9.95;;;;;;;19.26;94.81;100686.72;5064137;28;20483;-65
2023/06/19 04:11:44;;;;;;;20.08;9.32;;;;;;;19.46;94.72;100705.88;5072390;28;20055;-65
2023/06/19 04:14:12;;;;;;;21.17;9.15;;;;;;;19.70;93.40;100707.47;5071666;28;20060;-65
2023/06/19 04:16:39;;;;;;;13.23;8.73;;;;;;;19.82;92.22;100710.06;5065049;28;20052;-65
2023/06/19 04:19:07;;;;;;;17.08;9.10;;;;;;;19.93;91.05;100720.22;5082380;28;20058;-64
2023/06/19 04:21:34;;;;;;;12.73;9.13;;;;;;;19.96;89.99;100713.84;5054319;28;20056;-64
2023/06/19 04:24:08;;;;;;;19.33;8.68;;;;;;;20.16;89.64;100717.38;5061239;28;20040;-66
2023/06/19 04:26:36;;;;;;;17.70;8.57;;;;;;;19.99;89.65;100729.91;5052644;28;20048;-64
2023/06/19 04:29:06;;;;;;;15.95;8.80;;;;;;;19.89;89.91;100733.31;5053606;28;20056;-65
2023/06/19 04:31:35;;;;;;;18.23;9.23;;;;;;;19.90;89.79;100746.13;5054243;28;20060;-64
2023/06/19 04:34:04;;;;;;;18.42;8.48;;;;;;;19.98;89.39;100749.81;5069545;28;20067;-65
2023/06/19 04:36:31;;;;;;;13.73;8.65;;;;;;;19.96;90.23;100747.41;5072877;28;20052;-64
2023/06/19 04:39:00;;;;;;;14.60;8.75;;;;;;;19.89;90.61;100747.28;5074181;28;20063;-65
2023/06/19 04:41:28;;;;;;;13.10;8.88;;;;;;;19.97;89.57;100745.44;5052985;28;20055;-64
2023/06/19 04:43:55;;;;;;;16.67;9.65;;;;;;;19.92;89.86;100746.56;5060201;28;20357;-64
2023/06/19 04:46:23;;;;;;;14.65;9.48;;;;;;;20.00;89.62;100747.47;5072975;28;20066;-64
2023/06/19 04:48:51;;;;;;;17.77;9.73;;;;;;;20.14;88.54;100740.13;5073080;28;20415;-65
2023/06/19 04:51:21;;;;;;;16.67;10.30;;;;;;;20.22;89.02;100743.03;5071928;28;20060;-66
2023/06/19 04:53:48;;;;;;;20.52;9.57;;;;;;;20.19;88.42;100747.38;5073682;28;20052;-65
2023/06/19 04:56:15;;;;;;;21.52;10.55;;;;;;;20.28;88.10;100744.31;5072860;28;20055;-64
2023/06/19 04:58:46;;;;;;;17.52;10.15;;;;;;;20.15;87.54;100752.91;5072142;28;20554;-66
2023/06/19 05:01:13;;;;;;;15.68;9.52;;;;;;;20.14;88.33;100756.91;5049782;28;20057;-66
2023/06/19 05:03:42;;;;;;;14.05;9.40;;;;;;;20.25;88.28;100754.28;5056636;28;20041;-67
2023/06/19 05:06:09;;;;;;;14.15;9.00;;;;;;;20.01;88.93;100749.09;5072369;28;20053;-65
2023/06/19 05:08:37;;;;;;;14.65;9.70;;;;;;;19.93;90.07;100756.56;5073464;28;20049;-65
2023/06/19 05:11:04;;;;;;;13.38;9.68;;;;;;;20.27;88.49;100760.31;5072304;28;20059;-64
2023/06/19 05:13:32;;;;;;;19.30;9.30;;;;;;;20.29;88.50;100763.53;5088473;28;20048;-65
2023/06/19 05:15:59;;;;;;;16.90;9.75;;;;;;;20.22;88.05;100755.06;5077013;28;20036;-64
2023/06/19 05:18:26;;;;;;;15.43;9.95;;;;;;;20.15;88.53;100750.09;5074976;28;20052;-65
2023/06/19 05:20:54;;;;;;;15.75;10.30;;;;;;;20.23;87.90;100739.88;5072642;28;20048;-65
2023/06/19 05:23:22;;;;;;;15.98;10.23;;;;;;;20.28;88.22;100733.94;5073102;28;20496;-65
2023/06/19 05:25:50;;;;;;;19.73;10.40;;;;;;;20.30;88.05;100728.78;5073496;28;20048;-65
2023/06/19 05:28:17;;;;;;;16.13;9.63;;;;;;;20.28;88.00;100725.53;5071590;28;20052;-68
2023/06/19 05:30:45;;;;;;;13.05;9.75;;;;;;;20.17;88.56;100740.56;5071573;28;20055;-66
2023/06/19 05:33:15;;;;;;;16.90;9.98;;;;;;;20.14;89.63;100750.47;5072670;28;20047;-64
2023/06/19 05:35:43;;;;;;;14.77;10.30;;;;;;;20.17;88.90;100744.97;5073015;28;20049;-66
2023/06/19 05:38:10;;;;;;;18.80;10.70;;;;;;;20.29;88.40;100741.16;5071281;28;20586;-66
2023/06/19 05:40:38;;;;;;;17.55;10.00;;;;;;;20.33;88.44;100738.41;5071433;28;20059;-65
2023/06/19 05:43:05;;;;;;;16.13;10.35;;;;;;;20.40;88.13;100735.72;5072777;28;20059;-64
2023/06/19 05:45:33;;;;;;;17.65;9.65;;;;;;;20.47;88.03;100730.22;5072696;28;20048;-65
2023/06/19 05:48:00;;;;;;;17.30;10.27;;;;;;;20.51;87.05;100728.25;5073419;28;20057;-66
2023/06/19 05:50:28;;;;;;;17.00;11.05;;;;;;;20.50;86.89;100727.47;5072711;28;20068;-65
2023/06/19 05:52:55;;;;;;;19.83;11.48;;;;;;;20.43;86.91;100720.97;5071513;28;20055;-66
2023/06/19 05:55:24;;;;;;;16.02;10.77;;;;;;;20.70;86.43;100716.91;5055766;28;20049;-65
2023/06/19 05:57:52;;;;;;;16.13;11.17;;;;;;;20.72;86.24;100722.94;5055405;28;20053;-65
2023/06/19 06:00:20;;;;;;;18.50;10.55;;;;;;;21.11;84.01;100724.22;5064417;28;20052;-66
2023/06/19 06:02:48;;;;;;;22.75;16.05;;;;;;;21.07;84.05;100726.19;5061500;28;20049;-65
2023/06/19 06:05:17;;;;;;;23.05;14.63;;;;;;;20.95;84.38;100721.63;5051070;28;20053;-64
2023/06/19 06:07:44;;;;;;;20.13;10.75;;;;;;;20.91;84.36;100715.16;5059011;28;20052;-65
2023/06/19 06:10:12;;;;;;;23.23;10.80;;;;;;;20.80;85.74;100713.44;5071054;28;20065;-65
2023/06/19 06:12:39;;;;;;;13.77;10.32;;;;;;;20.98;85.10;100718.09;5056833;28;20047;-66
2023/06/19 06:15:07;;;;;;;15.13;11.10;;;;;;;20.93;84.59;100720.38;5050264;28;20062;-65
2023/06/19 06:17:34;;;;;;;17.27;10.68;;;;;;;20.97;84.48;100724.03;5066081;28;20048;-65
2023/06/19 06:20:06;;;;;;;16.63;10.40;;;;;;;21.05;84.57;100731.34;5063266;28;20052;-65
2023/06/19 06:22:33;;;;;;;17.10;11.07;;;;;;;21.03;84.34;100733.72;5070894;28;20044;-65
2023/06/19 06:25:01;;;;;;;18.30;10.75;;;;;;;21.19;83.64;100737.94;5071665;28;20461;-65
2023/06/19 06:27:28;;;;;;;17.48;10.80;;;;;;;21.42;82.45;100740.56;5071946;28;20080;-66
2023/06/19 06:29:56;;;;;;;15.77;10.38;;;;;;;21.47;82.22;100737.41;5076520;28;20052;-65
2023/06/19 06:32:23;;;;;;;19.77;11.55;;;;;;;21.45;81.67;100747.38;5075713;28;20056;-65
2023/06/19 06:34:52;;;;;;;18.67;11.07;;;;;;;21.67;81.64;100749.97;5075475;28;20052;-65
2023/06/19 06:37:22;;;;;;;15.95;10.48;;;;;;;21.52;81.42;100751.06;5038181;28;20049;-65
2023/06/19 06:39:49;;;;;;;21.73;11.68;;;;;;;21.45;81.18;100764.19;5056294;28;20053;-65
2023/06/19 06:42:17;;;;;;;20.13;17.30;;;;;;;21.52;81.85;100769.84;5055631;28;20053;-65
2023/06/19 06:44:45;;;;;;;18.17;12.07;;;;;;;21.58;81.61;100762.72;5069915;28;20049;-64
2023/06/19 06:47:12;;;;;;;16.67;12.05;;;;;;;21.65;80.79;100774.81;5075427;28;20041;-65
2023/06/19 06:49:40;;;;;;;15.65;11.68;;;;;;;21.47;81.96;100785.03;5075523;28;20048;-64
2023/06/19 06:52:07;;;;;;;20.38;13.00;;;;;;;21.44;81.52;100780.22;5075179;28;20044;-64
2023/06/19 06:54:34;;;;;;;22.25;12.48;;;;;;;21.34;82.54;100780.88;5069966;28;20449;-64
2023/06/19 06:57:02;;;;;;;18.45;12.27;;;;;;;21.44;82.50;100787.81;5074330;28;20451;-64
2023/06/19 06:59:29;;;;;;;18.25;12.40;;;;;;;21.41;82.29;100783.75;5067728;28;20048;-65
2023/06/19 07:01:57;;;;;;;21.08;12.93;;;;;;;21.54;82.32;100778.69;5053094;28;20044;-65
2023/06/19 07:04:25;;;;;;;14.63;11.77;;;;;;;21.70;81.54;100785.69;5053380;28;20056;-66
2023/06/19 07:06:52;;;;;;;27.77;19.67;;;;;;;21.71;81.30;100780.84;5055459;28;20052;-65
2023/06/19 07:09:21;;;;;;;17.40;12.90;;;;;;;21.77;80.64;100782.13;5055154;28;20079;-64
2023/06/19 07:11:49;;;;;;;20.02;12.40;;;;;;;21.69;81.49;100784.03;5068154;28;20049;-64
2023/06/19 07:14:20;;;;;;;17.58;12.63;;;;;;;21.67;81.28;100783.63;5054801;28;20535;-66
2023/06/19 07:16:49;;;;;;;20.05;12.65;;;;;;;21.57;81.49;100787.13;5068038;28;20467;-64
2023/06/19 07:19:16;;;;;;;18.83;11.98;;;;;;;21.72;81.11;100779.69;5074505;28;20051;-64
2023/06/19 07:21:44;;;;;;;17.85;12.43;;;;;;;21.67;81.03;100785.63;5074516;28;20055;-64
2023/06/19 07:24:11;;;;;;;20.00;12.80;;;;;;;21.62;81.07;100778.38;5057042;28;20496;-64
2023/06/19 07:26:38;;;;;;;17.67;12.40;;;;;;;21.80;80.57;100779.38;5074936;28;20056;-64
2023/06/19 07:29:05;;;;;;;20.60;12.40;;;;;;;22.04;79.10;100778.78;5073339;28;20044;-65
2023/06/19 07:31:33;;;;;;;23.45;12.35;;;;;;;22.16;79.46;100780.44;5075557;28;20048;-63
2023/06/19 07:34:00;;;;;;;19.17;12.88;;;;;;;22.01;79.07;100773.94;5074665;28;20052;-64
2023/06/19 07:36:28;;;;;;;17.98;11.88;;;;;;;22.12;78.82;100774.03;5074284;28;20530;-65
2023/06/19 07:38:55;;;;;;;14.95;11.35;;;;;;;22.39;77.40;100778.22;5072999;28;20475;-65
2023/06/19 07:41:23;;;;;;;16.33;11.98;;;;;;;22.71;76.05;100767.19;5054564;28;20061;-65
2023/06/19 07:43:50;;;;;;;17.10;11.50;;;;;;;22.62;75.15;100766.75;5070767;28;20055;-64
2023/06/19 07:46:17;;;;;;;21.38;11.05;;;;;;;22.68;75.03;100773.59;5073288;28;20041;-64
2023/06/19 07:48:45;;;;;;;15.70;11.27;;;;;;;23.29;72.71;100768.63;5073891;28;20040;-63
2023/06/19 07:51:12;;;;;;;16.65;11.45;;;;;;;23.59;71.04;100767.50;5057796;28;20053;-64
2023/06/19 07:53:40;;;;;;;22.00;12.02;;;;;;;23.54;70.94;100771.50;5066435;28;20436;-65
2023/06/19 07:56:08;;;;;;;17.13;11.65;;;;;;;23.16;72.60;100775.00;5074249;28;20044;-64
2023/06/19 07:58:35;;;;;;;15.50;10.98;;;;;;;23.72;70.48;100768.69;5074164;28;20048;-64
2023/06/19 08:01:03;;;;;;;20.23;11.05;;;;;;;24.11;68.78;100775.97;5073776;28;20040;-64
2023/06/19 08:03:30;;;;;;;15.50;11.13;;;;;;;24.26;67.95;100773.94;5073656;28;20396;-63
2023/06/19 08:05:58;;;;;;;15.20;11.15;;;;;;;24.12;68.07;100774.78;5072695;28;20616;-64
2023/06/19 08:08:25;;;;;;;20.83;12.32;;;;;;;23.77;68.71;100768.28;5073306;28;20048;-64
2023/06/19 08:10:53;;;;;;;24.85;12.68;;;;;;;23.34;70.36;100764.66;5055587;28;20064;-64
2023/06/19 08:13:20;;;;;;;18.02;13.10;;;;;;;23.20;70.67;100770.19;5073997;28;20493;-63
2023/06/19 08:15:47;;;;;;;18.35;12.88;;;;;;;23.30;70.49;100775.88;5073798;28;20057;-62
2023/06/19 08:18:15;;;;;;;18.55;13.05;;;;;;;23.35;69.81;100777.47;5071916;28;20624;-64
2023/06/19 08:20:42;;;;;;;14.80;10.77;;;;;;;23.70;68.84;100771.91;5073269;28;20045;-64
2023/06/19 08:23:10;;;;;;;20.98;12.05;;;;;;;23.59;68.22;100767.50;5073827;28;20060;-65
2023/06/19 08:25:37;;;;;;;18.20;11.23;;;;;;;23.77;67.67;100776.75;5073691;28;20060;-65
2023/06/19 08:28:05;;;;;;;18.33;13.40;;;;;;;23.39;68.76;100769.88;5070479;28;20071;-64
2023/06/19 08:30:32;;;;;;;19.42;14.48;;;;;;;23.83;67.77;100773.16;5058033;28;20060;-63
2023/06/19 08:32:59;;;;;;;22.40;12.73;;;;;;;23.41;68.92;100764.66;5052708;28;20522;-64
2023/06/19 08:35:27;;;;;;;20.60;11.88;;;;;;;23.58;68.08;100766.69;5051025;28;20424;-63
2023/06/19 08:37:54;;;;;;;15.55;11.82;;;;;;;23.50;68.81;100764.25;5053048;28;20049;-64
2023/06/19 08:40:22;;;;;;;17.13;10.75;;;;;;;23.85;68.15;100770.72;5070461;28;20052;-64
2023/06/19 08:42:51;;;;;;;18.58;9.88;;;;;;;24.17;67.19;100776.34;5073256;28;20053;-64
2023/06/19 08:45:20;;;;;;;19.55;11.60;;;;;;;23.86;66.92;100777.16;5059054;28;20045;-64
2023/06/19 08:47:49;;;;;;;13.80;9.77;;;;;;;23.88;67.68;100775.56;5073451;28;20044;-65
2023/06/19 08:50:16;;;;;;;16.25;9.25;;;;;;;23.72;65.94;100769.50;5070819;28;20536;-64
2023/06/19 08:52:43;;;;;;;16.17;7.93;;;;;;;23.94;64.45;100764.69;5054684;28;20049;-65
2023/06/19 08:55:11;;;;;;;12.20;7.70;;;;;;;24.09;64.11;100774.78;5071388;28;20053;-64
2023/06/19 08:57:39;;;;;;;15.57;7.00;;;;;;;24.03;63.40;100771.56;5054870;28;20056;-64
2023/06/19 09:00:08;;;;;;;10.98;7.03;;;;;;;23.69;62.72;100773.13;5073242;28;20048;-63
2023/06/19 09:02:44;;;;;;;13.10;7.60;;;;;;;23.68;64.16;100765.06;5071404;28;20044;-64
2023/06/19 09:05:19;;;;;;;13.40;7.38;;;;;;;24.17;61.62;100763.09;5054372;28;20056;-64
2023/06/19 09:07:55;;;;;;;10.23;6.43;;;;;;;24.01;62.53;100762.69;5073112;28;20078;-63
2023/06/19 09:10:27;;;;;;;9.60;6.78;;;;;;;24.14;61.67;100749.84;5073205;28;20068;-66
2023/06/19 09:12:59;;;;;;;12.77;7.28;;;;;;;24.24;62.28;100748.19;5087649;28;20051;-65
2023/06/19 09:15:28;;;;;;;10.07;6.47;;;;;;;24.40;61.39;100755.03;5075066;28;20535;-64
2023/06/19 09:18:14;;;;;;;;;;;;;;;24.61;61.52;100756.16;5064974;28;20044;-64
2023/06/19 09:20:47;;;;;;;12.13;5.57;;;;;;;25.03;59.96;100742.72;5071191;28;19920;-63
2023/06/19 09:23:17;;;;;;;8.90;5.57;;;;;;;25.04;59.77;100741.50;5070620;28;20065;-64
2023/06/19 09:25:52;;;;;;;11.02;5.63;;;;;;;25.06;59.35;100741.91;5071595;28;20060;-65
2023/06/19 09:28:24;;;;;;;11.95;5.50;;;;;;;25.16;59.21;100737.41;5073278;28;20059;-64
2023/06/19 09:30:56;;;;;;;13.20;5.60;;;;;;;25.35;58.08;100743.34;5071368;28;20472;-64
2023/06/19 09:33:26;;;;;;;9.27;5.85;;;;;;;25.07;58.93;100737.06;5072505;28;20083;-64
2023/06/19 09:35:56;;;;;;;10.40;5.90;;;;;;;24.92;59.34;100739.16;5071374;28;20052;-65
2023/06/19 09:38:31;;;;;;;9.67;5.63;;;;;;;25.03;59.58;100745.56;5073033;28;20044;-64
2023/06/19 09:41:01;;;;;;;11.15;5.10;;;;;;;25.04;60.15;100740.69;5072349;28;20053;-64
2023/06/19 09:43:43;;;;;;;8.27;5.05;;;;;;;24.67;58.27;100743.28;5057820;28;20056;-64
2023/06/19 09:46:14;;;;;;;10.80;5.28;;;;;;;24.55;58.69;100736.03;5048559;28;20059;-64
2023/06/19 09:48:43;;;;;;;11.93;5.57;;;;;;;24.85;58.92;100729.91;5070990;28;20045;-66
2023/06/19 09:51:18;;;;;;;8.48;4.43;;;;;;;24.65;58.61;100728.78;5072620;28;20044;-64
2023/06/19 09:53:48;;;;;;;8.75;5.07;;;;;;;24.84;58.01;100731.16;5070987;28;20063;-64
2023/06/19 09:56:16;;;;;;;10.55;5.35;;;;;;;25.09;57.54;100726.19;5071135;28;20048;-64
2023/06/19 09:58:44;;;;;;;11.77;5.47;;;;;;;25.63;56.72;100722.59;5072151;28;20709;-63
2023/06/19 10:01:12;;;;;;;9.40;5.47;;;;;;;25.23;58.06;100723.25;5071141;28;20057;-64
2023/06/19 10:03:40;;;;;;;9.55;5.30;;;;;;;25.30;57.48;100724.03;5073334;28;20049;-65
2023/06/19 10:06:13;;;;;;;13.18;5.30;;;;;;;25.58;55.92;100715.41;5075869;28;20048;-64
2023/06/19 10:08:43;;;;;;;9.27;4.10;;;;;;;25.74;53.40;100714.88;5074986;28;20044;-64
2023/06/19 10:11:11;;;;;;;7.22;4.10;;;;;;;25.69;52.48;100714.50;5076516;28;20060;-64
2023/06/19 10:13:40;;;;;;;8.32;4.47;;;;;;;25.97;52.47;100717.88;5095919;28;20052;-64
2023/06/19 10:16:19;;;;;;;9.23;5.43;;;;;;;26.20;53.14;100715.28;5089424;28;20047;-63
2023/06/19 10:18:48;;;;;;;15.15;8.60;;;;;;;25.91;53.52;100716.72;5075785;28;20040;-64
2023/06/19 10:21:19;;;;;;;11.75;7.90;;;;;;;25.75;53.31;100718.50;5074553;28;20048;-64
2023/06/19 10:23:55;;;;;;;10.85;8.07;;;;;;;25.80;54.00;100716.03;5061907;28;20064;-65
2023/06/19 10:26:34;;;;;;;15.02;7.38;;;;;;;26.09;52.60;100713.75;5054006;28;20061;-64
2023/06/19 10:29:17;;;;;;;11.15;5.93;;;;;;;25.93;52.53;100711.47;5054348;28;20044;-64
2023/06/19 10:31:46;;;;;;;15.88;8.50;;;;;;;26.02;51.62;100694.84;5064980;28;20396;-64
2023/06/19 10:34:13;;;;;;;24.50;13.85;;;;;;;25.87;53.09;100692.59;5075102;28;20057;-64
2023/06/19 10:36:41;;;;;;;18.65;9.15;;;;;;;25.61;53.83;100682.75;5075702;28;20048;-64
2023/06/19 10:39:08;;;;;;;13.38;7.05;;;;;;;25.90;52.80;100684.09;5063280;28;20526;-64
2023/06/19 10:41:40;;;;;;;16.75;7.53;;;;;;;26.35;51.73;100690.47;5060881;28;20059;-63
2023/06/19 10:44:12;;;;;;;11.68;6.60;;;;;;;26.43;51.07;100694.84;5073900;28;20045;-64
2023/06/19 10:46:40;;;;;;;10.95;5.93;;;;;;;26.09;51.76;100697.63;5075487;28;20063;-64
2023/06/19 10:49:11;;;;;;;9.55;5.50;;;;;;;26.13;51.82;100694.78;5073353;28;20059;-65
2023/06/19 10:51:40;;;;;;;15.05;10.32;;;;;;;26.15;51.05;100695.16;5058328;28;20049;-64
2023/06/19 10:54:07;;;;;;;10.43;5.80;;;;;;;26.31;51.25;100696.19;5053720;28;20057;-63
2023/06/19 10:56:35;;;;;;;10.20;5.10;;;;;;;26.27;51.19;100695.44;5049383;28;20040;-63
2023/06/19 10:59:05;;;;;;;8.00;5.18;;;;;;;26.39;50.27;100694.06;5075224;28;20052;-65
2023/06/19 11:01:37;;;;;;;8.73;5.07;;;;;;;26.63;50.12;100684.50;5074876;28;20052;-64
2023/06/19 11:04:09;;;;;;;9.70;5.47;;;;;;;26.64;50.17;100681.25;5075335;28;20048;-64
2023/06/19 11:06:37;;;;;;;10.15;5.30;;;;;;;26.82;49.91;100680.22;5074761;28;20036;-64
2023/06/19 11:09:06;;;;;;;8.25;5.00;;;;;;;27.03;49.90;100679.94;5075368;28;20491;-63
2023/06/19 11:11:44;;;;;;;9.40;4.95;;;;;;;26.92;49.03;100673.66;5070460;28;20048;-64
2023/06/19 11:14:15;;;;;;;9.07;5.45;;;;;;;26.82;48.54;100671.75;5053388;28;20045;-64
2023/06/19 11:16:45;;;;;;;8.77;5.45;;;;;;;25.96;50.69;100662.63;5071966;28;20052;-65
2023/06/19 11:19:17;;;;;;;;;;;;;;;25.94;51.31;100672.75;5071126;28;20048;-63
2023/06/19 11:21:51;;;;;;;9.55;5.32;;;;;;;26.38;50.55;100676.31;5073335;28;19920;-64
2023/06/19 11:24:20;;;;;;;10.85;5.38;;;;;;;26.67;51.02;100677.59;5054674;28;20068;-64